Odn II — C6YP7 — position and weather

sailwx.info

Track history (hours):
 
Tides and Currents Weather Stations Pressure Air Temp Water Temp Dewpoint Dewpoint Depression Visibility Wind Speed Wind Dir Waves Ship Positions

Odn II

Last reported at 2018-Mar-21 16:26 UTC. Time now 2018-Aug-14 13:45 UTC.
Position S 23°05' W 042°50'.
Warning: this ship's position is months out of date.

Length 238 m; draft 10 m.

Type: Other ship. MMSI: 311041300.

Date/timePositionNaut miles runAvg speedWind from/ knotsBaromVisibWave heightAir tempDewpointWater temp
2018-Mar-21 16:26S 23°05' W 042°50'3 6.1
2018-Mar-21 16:00S 23°05' W 042°52'3 6.0
2018-Mar-21 15:30S 23°05' W 042°56'3 6.0
2018-Mar-21 15:00S 23°04' W 042°59'3 6.9
2018-Mar-21 14:30S 23°03' W 043°02'3 6.8
2018-Mar-21 14:00S 23°02' W 043°06'3 6.5
2018-Mar-21 13:30S 22°60' W 043°08'1 2.3
2018-Mar-21 13:00S 22°59' W 043°10'2 4.9
2018-Mar-21 12:30S 22°57' W 043°09'3 5.5
2018-Mar-21 11:59S 22°54' W 043°09'0 0.3
2018-Mar-21 11:26S 22°54' W 043°09'0 0.1
2018-Mar-21 10:59S 22°54' W 043°09'0 0.1
2018-Mar-21 10:29S 22°54' W 043°09'0 0.1
2018-Mar-21 09:59S 22°54' W 043°09'0 0.0
2018-Mar-21 09:26S 22°54' W 043°09'0 0.0
2018-Mar-21 08:59S 22°54' W 043°09'0 0.0
2018-Mar-21 08:29S 22°54' W 043°09'0 0.0
2018-Mar-21 07:59S 22°54' W 043°09'0 0.0
2018-Mar-21 07:29S 22°54' W 043°09'0 0.0
2018-Mar-21 06:59S 22°54' W 043°09'0 0.0
2018-Mar-21 06:26S 22°54' W 043°09'0 0.0
2018-Mar-21 05:59S 22°54' W 043°09'0 0.0
2018-Mar-21 05:29S 22°54' W 043°09'0 0.0
2018-Mar-21 04:59S 22°54' W 043°09'0 0.0
2018-Mar-21 04:29S 22°54' W 043°09'0 0.0
2018-Mar-21 03:59S 22°54' W 043°09'0 0.0
2018-Mar-21 03:29S 22°54' W 043°09'0 0.0
2018-Mar-21 02:59S 22°54' W 043°09'0 0.0
2018-Mar-21 02:29S 22°54' W 043°09'0 0.0
2018-Mar-21 01:59S 22°54' W 043°09'0 0.0
2018-Mar-21 01:29S 22°54' W 043°09'0 0.0
2018-Mar-21 00:59S 22°54' W 043°09'0 0.0
2018-Mar-21 00:29S 22°54' W 043°09'0 0.0
2018-Mar-20 23:59S 22°54' W 043°09'0 0.0
2018-Mar-20 23:29S 22°54' W 043°09'0 0.0
2018-Mar-20 22:59S 22°54' W 043°09'0 0.0
2018-Mar-20 22:29S 22°54' W 043°09'0 0.0
2018-Mar-20 21:56S 22°54' W 043°09'0 0.0
2018-Mar-20 21:29S 22°54' W 043°09'0 0.0
2018-Mar-20 20:59S 22°54' W 043°09'0 0.0
2018-Mar-20 20:29S 22°54' W 043°09'0 0.0
2018-Mar-20 19:59S 22°54' W 043°09'0 0.0
2018-Mar-20 19:29S 22°54' W 043°09'0 0.1
2018-Mar-20 18:59S 22°54' W 043°09'0 0.0
2018-Mar-20 18:29S 22°54' W 043°09'0 0.0
2018-Mar-20 17:59S 22°54' W 043°09'0 0.0
2018-Mar-20 17:29S 22°54' W 043°09'0 0.0
2018-Mar-20 16:59S 22°54' W 043°09'0 0.0
2018-Mar-20 16:23S 22°54' W 043°09'0 0.0
2018-Mar-20 15:59S 22°54' W 043°09'0 0.0
2018-Mar-20 15:29S 22°54' W 043°09'0 0.0
2018-Mar-20 14:59S 22°54' W 043°09'0 0.0
2018-Mar-20 14:29S 22°54' W 043°09'0 0.0
2018-Mar-20 13:59S 22°54' W 043°09'0 0.0
2018-Mar-20 13:29S 22°54' W 043°09'0 0.0
2018-Mar-20 12:59S 22°54' W 043°09'0 0.0
2018-Mar-20 12:29S 22°54' W 043°09'0 0.0
2018-Mar-20 11:59S 22°54' W 043°09'0 0.0
2018-Mar-20 11:29S 22°54' W 043°09'0 0.0
2018-Mar-20 10:59S 22°54' W 043°09'0 0.0
2018-Mar-20 10:29S 22°54' W 043°09'0 0.0
2018-Mar-20 09:59S 22°54' W 043°09'0 0.0
2018-Mar-20 09:29S 22°54' W 043°09'0 0.0
2018-Mar-20 08:59S 22°54' W 043°09'0 0.1
2018-Mar-20 08:29S 22°54' W 043°09'0 0.0
2018-Mar-20 07:59S 22°54' W 043°09'0 0.0
2018-Mar-20 07:29S 22°54' W 043°09'0 0.1
2018-Mar-20 06:59S 22°54' W 043°09'0 0.0
2018-Mar-20 06:29S 22°54' W 043°09'0 0.0
2018-Mar-20 05:59S 22°54' W 043°09'0 0.1
2018-Mar-20 05:29S 22°54' W 043°09'0 0.0
2018-Mar-20 04:59S 22°54' W 043°09'0 0.0
2018-Mar-20 04:29S 22°54' W 043°09'0 0.0
2018-Mar-20 03:59S 22°54' W 043°09'0 0.0
2018-Mar-20 03:29S 22°54' W 043°09'0 0.0
2018-Mar-20 02:59S 22°54' W 043°09'0 0.0
2018-Mar-20 02:29S 22°54' W 043°09'0 0.0
2018-Mar-20 01:59S 22°54' W 043°09'0 0.0
2018-Mar-20 01:29S 22°54' W 043°09'0 0.0
2018-Mar-20 00:59S 22°54' W 043°09'0 0.0
2018-Mar-20 00:29S 22°54' W 043°09'0 0.0
2018-Mar-19 23:59S 22°54' W 043°09'0 0.0
2018-Mar-19 23:29S 22°54' W 043°09'0 0.0
2018-Mar-19 22:56S 22°54' W 043°09'0 0.0
2018-Mar-19 22:29S 22°54' W 043°09'0 0.0
2018-Mar-19 21:59S 22°54' W 043°09'0 0.0
2018-Mar-19 21:29S 22°54' W 043°09'0 0.0
2018-Mar-19 20:59S 22°54' W 043°09'0 0.0
2018-Mar-19 20:29S 22°54' W 043°09'0 0.0
2018-Mar-19 19:59S 22°54' W 043°09'0 0.0
2018-Mar-19 19:29S 22°54' W 043°09'0 0.0
2018-Mar-19 18:59S 22°54' W 043°09'0 0.1
2018-Mar-19 18:29S 22°54' W 043°09'0 0.0
2018-Mar-19 17:59S 22°54' W 043°09'0 0.0
2018-Mar-19 17:29S 22°54' W 043°09'0 0.0
2018-Mar-19 16:59S 22°54' W 043°09'0 0.0
2018-Mar-19 16:26S 22°54' W 043°09'0 0.0
2018-Mar-19 15:59S 22°54' W 043°09'0 0.0
2018-Mar-19 15:29S 22°54' W 043°09'0 0.1
2018-Mar-19 14:59S 22°54' W 043°09'0 0.0
2018-Mar-19 14:29S 22°54' W 043°09'0 0.0
2018-Mar-19 13:59S 22°54' W 043°09'0 0.0
2018-Mar-19 13:29S 22°54' W 043°09'0 0.0
2018-Mar-19 12:59S 22°54' W 043°09'0 0.0
2018-Mar-19 12:29S 22°54' W 043°09'0 0.0
2018-Mar-19 11:59S 22°54' W 043°09'0 0.0
2018-Mar-19 11:29S 22°54' W 043°09'0 0.0
2018-Mar-19 10:59S 22°54' W 043°09'0 0.0
2018-Mar-19 10:29S 22°54' W 043°09'0 0.0
2018-Mar-19 09:59S 22°54' W 043°09'0 0.0
2018-Mar-19 09:29S 22°54' W 043°09'0 0.0
2018-Mar-19 08:59S 22°54' W 043°09'0 0.0
2018-Mar-19 08:29S 22°54' W 043°09'0 0.0
2018-Mar-19 07:59S 22°54' W 043°09'0 0.0
2018-Mar-19 07:29S 22°54' W 043°09'0 0.0
2018-Mar-19 06:59S 22°54' W 043°09'0 0.1
2018-Mar-19 06:29S 22°54' W 043°09'0 0.0
2018-Mar-19 05:59S 22°54' W 043°09'0 0.0
2018-Mar-19 05:29S 22°54' W 043°09'0 0.0
2018-Mar-19 04:59S 22°54' W 043°09'0 0.0
2018-Mar-19 04:29S 22°54' W 043°09'0 0.0
2018-Mar-19 03:59S 22°54' W 043°09'0 0.0
2018-Mar-19 03:29S 22°54' W 043°09'0 0.0
2018-Mar-19 02:59S 22°54' W 043°09'0 0.0
2018-Mar-19 02:26S 22°54' W 043°09'0 0.0
2018-Mar-19 01:59S 22°54' W 043°09'0 0.1
2018-Mar-19 01:29S 22°54' W 043°09'0 0.0
2018-Mar-19 00:59S 22°54' W 043°09'0 0.0
2018-Mar-19 00:29S 22°54' W 043°09'0 0.0
2018-Mar-18 23:59S 22°54' W 043°09'0 0.0
2018-Mar-18 23:29S 22°54' W 043°09'0 0.0
2018-Mar-18 22:59S 22°54' W 043°09'0 0.0
2018-Mar-18 22:29S 22°54' W 043°09'0 0.0
2018-Mar-18 21:59S 22°54' W 043°09'0 0.0
2018-Mar-18 21:26S 22°54' W 043°09'0 0.0
2018-Mar-18 20:59S 22°54' W 043°09'0 0.0
2018-Mar-18 20:29S 22°54' W 043°09'0 0.0
2018-Mar-18 19:59S 22°54' W 043°09'0 0.0
2018-Mar-18 19:29S 22°54' W 043°09'0 0.0
2018-Mar-18 18:59S 22°54' W 043°09'0 0.1
2018-Mar-18 18:29S 22°54' W 043°09'0 0.0
2018-Mar-18 17:59S 22°54' W 043°09'0 0.0
2018-Mar-18 17:29S 22°54' W 043°09'0 0.0
2018-Mar-18 16:59S 22°54' W 043°09'0 0.1
2018-Mar-18 16:29S 22°54' W 043°09'0 0.1
2018-Mar-18 15:59S 22°54' W 043°09'0 0.0
2018-Mar-18 15:29S 22°54' W 043°09'0 0.0
2018-Mar-18 14:59S 22°54' W 043°09'0 0.0
2018-Mar-18 14:29S 22°54' W 043°09'0 0.0
2018-Mar-18 13:59S 22°54' W 043°09'0 0.0
2018-Mar-18 13:29S 22°54' W 043°09'0 0.0
2018-Mar-18 12:59S 22°54' W 043°09'0 0.0
2018-Mar-18 12:23S 22°54' W 043°09'0 0.0
2018-Mar-18 11:59S 22°54' W 043°09'0 0.0
2018-Mar-18 11:29S 22°54' W 043°09'0 0.0
2018-Mar-18 10:56S 22°54' W 043°09'0 0.0
2018-Mar-18 10:29S 22°54' W 043°09'0 0.0
2018-Mar-18 09:59S 22°54' W 043°09'0 0.0
2018-Mar-18 09:29S 22°54' W 043°09'0 0.0
2018-Mar-18 08:59S 22°54' W 043°09'0 0.0
2018-Mar-18 08:26S 22°54' W 043°09'0 0.0
2018-Mar-18 07:59S 22°54' W 043°09'0 0.0
2018-Mar-18 07:29S 22°54' W 043°09'0 0.0
2018-Mar-18 06:59S 22°54' W 043°09'0 0.0
2018-Mar-18 06:29S 22°54' W 043°09'0 0.0
2018-Mar-18 05:59S 22°54' W 043°09'0 0.0
2018-Mar-18 05:29S 22°54' W 043°09'0 0.1
2018-Mar-18 04:59S 22°54' W 043°09'0 0.0
2018-Mar-18 04:29S 22°54' W 043°09'0 0.0
2018-Mar-18 03:59S 22°54' W 043°09'0 0.0
2018-Mar-18 03:29S 22°54' W 043°09'0 0.0
2018-Mar-18 02:59S 22°54' W 043°09'0 0.0
2018-Mar-18 02:29S 22°54' W 043°09'0 0.0
2018-Mar-18 01:59S 22°54' W 043°09'0 0.0
2018-Mar-18 01:26S 22°54' W 043°09'0 0.0
2018-Mar-18 00:50S 22°54' W 043°09'0 0.0
2018-Mar-18 00:29S 22°54' W 043°09'0 0.0
2018-Mar-17 23:59S 22°54' W 043°09'0 0.0
2018-Mar-17 23:29S 22°54' W 043°09'0 0.0
2018-Mar-17 22:59S 22°54' W 043°09'0 0.0
2018-Mar-17 22:29S 22°54' W 043°09'0 0.0
2018-Mar-17 21:59S 22°54' W 043°09'0 0.0
2018-Mar-17 21:29S 22°54' W 043°09'0 0.0
2018-Mar-17 20:59S 22°54' W 043°09'0 0.0
2018-Mar-17 20:29S 22°54' W 043°09'0 0.0
2018-Mar-17 19:56S 22°54' W 043°09'0 0.0
2018-Mar-17 19:29S 22°54' W 043°09'0 0.0
2018-Mar-17 18:59S 22°54' W 043°09'0 0.0
2018-Mar-17 18:26S 22°54' W 043°09'0 0.0
2018-Mar-17 17:59S 22°54' W 043°09'0 0.1
2018-Mar-17 17:29S 22°54' W 043°09'0 0.0
2018-Mar-17 16:59S 22°54' W 043°09'0 0.0
2018-Mar-17 16:29S 22°54' W 043°09'0 0.1
2018-Mar-17 15:59S 22°54' W 043°09'0 0.0
2018-Mar-17 15:29S 22°54' W 043°09'0 0.1
2018-Mar-17 14:59S 22°54' W 043°09'0 0.1
2018-Mar-17 14:29S 22°54' W 043°09'0 0.1
2018-Mar-17 13:59S 22°54' W 043°09'0 0.0
2018-Mar-17 13:29S 22°54' W 043°09'0 0.0
2018-Mar-17 12:59S 22°54' W 043°09'0 0.0
2018-Mar-17 12:29S 22°54' W 043°09'0 0.0
2018-Mar-17 11:59S 22°54' W 043°09'0 0.0
2018-Mar-17 11:29S 22°54' W 043°09'0 0.0
2018-Mar-17 10:59S 22°54' W 043°09'0 0.0
2018-Mar-17 10:29S 22°54' W 043°09'0 0.1
2018-Mar-17 09:59S 22°54' W 043°09'0 0.0
2018-Mar-17 09:29S 22°54' W 043°09'0 0.1
2018-Mar-17 08:59S 22°54' W 043°09'0 0.0
2018-Mar-17 08:29S 22°54' W 043°09'0 0.0
2018-Mar-17 07:56S 22°54' W 043°09'0 0.0
2018-Mar-17 07:26S 22°54' W 043°09'0 0.0
2018-Mar-17 06:56S 22°54' W 043°09'0 0.0
2018-Mar-17 06:29S 22°54' W 043°09'0 0.0
2018-Mar-17 05:59S 22°54' W 043°09'0 0.0
2018-Mar-17 05:29S 22°54' W 043°09'0 0.0
2018-Mar-17 04:56S 22°54' W 043°09'0 0.0
2018-Mar-17 04:29S 22°54' W 043°09'0 0.1
2018-Mar-17 03:59S 22°54' W 043°09'0 0.0
2018-Mar-17 03:29S 22°54' W 043°09'0 0.0
2018-Mar-17 02:59S 22°54' W 043°09'0 0.0
2018-Mar-17 02:29S 22°54' W 043°09'0 0.0
2018-Mar-17 01:59S 22°54' W 043°09'0 0.0
2018-Mar-17 01:29S 22°54' W 043°09'0 0.0
2018-Mar-17 00:59S 22°54' W 043°09'0 0.0
2018-Mar-17 00:29S 22°54' W 043°09'0 0.0
2018-Mar-16 23:56S 22°54' W 043°09'0 0.0
2018-Mar-16 23:29S 22°54' W 043°09'0 0.0
2018-Mar-16 22:59S 22°54' W 043°09'0 0.0
2018-Mar-16 22:29S 22°54' W 043°09'0 0.0
2018-Mar-16 21:59S 22°54' W 043°09'0 0.0
2018-Mar-16 21:29S 22°54' W 043°09'0 0.0
2018-Mar-16 20:59S 22°54' W 043°09'0 0.0
2018-Mar-16 20:29S 22°54' W 043°09'0 0.0
2018-Mar-16 19:59S 22°54' W 043°09'0 0.0
2018-Mar-16 19:26S 22°54' W 043°09'0 0.0
2018-Mar-16 18:59S 22°54' W 043°09'0 0.0
2018-Mar-16 18:29S 22°54' W 043°09'0 0.0
2018-Mar-16 17:59S 22°54' W 043°09'0 0.0
2018-Mar-16 17:29S 22°54' W 043°09'0 0.0
2018-Mar-16 16:59S 22°54' W 043°09'0 0.0
2018-Mar-16 16:29S 22°54' W 043°09'0 0.0
2018-Mar-16 15:59S 22°54' W 043°09'0 0.0
2018-Mar-16 15:29S 22°54' W 043°09'0 0.0
2018-Mar-16 14:59S 22°54' W 043°09'0 0.0
2018-Mar-16 14:29S 22°54' W 043°09'0 0.0
2018-Mar-16 13:59S 22°54' W 043°09'0 0.0
2018-Mar-16 13:29S 22°54' W 043°09'0 0.0
2018-Mar-16 12:59S 22°54' W 043°09'0 0.0
2018-Mar-16 12:29S 22°54' W 043°09'0 0.0
2018-Mar-16 11:59S 22°54' W 043°09'0 0.0
2018-Mar-16 11:29S 22°54' W 043°09'0 0.0
2018-Mar-16 10:59S 22°54' W 043°09'0 0.0
2018-Mar-16 10:29S 22°54' W 043°09'0 0.0
2018-Mar-16 09:59S 22°54' W 043°09'0 0.0
2018-Mar-16 09:29S 22°54' W 043°09'0 0.0
2018-Mar-16 08:59S 22°54' W 043°09'0 0.0
2018-Mar-16 08:26S 22°54' W 043°09'0 0.0
2018-Mar-16 07:59S 22°54' W 043°09'0 0.0
2018-Mar-16 07:29S 22°54' W 043°09'0 0.0
2018-Mar-16 06:59S 22°54' W 043°09'0 0.0
2018-Mar-16 06:26S 22°54' W 043°09'0 0.1
2018-Mar-16 05:59S 22°54' W 043°09'0 0.0
2018-Mar-16 05:29S 22°54' W 043°09'0 0.0
2018-Mar-16 04:59S 22°54' W 043°09'0 0.0
2018-Mar-16 04:29S 22°54' W 043°09'0 0.1
2018-Mar-16 03:59S 22°54' W 043°09'0 0.0
2018-Mar-16 03:29S 22°54' W 043°09'0 0.0
2018-Mar-16 02:59S 22°54' W 043°09'0 0.0
2018-Mar-16 02:29S 22°54' W 043°09'0 0.0
2018-Mar-16 00:17S 22°54' W 043°09'0 0.0
2018-Mar-15 23:59S 22°54' W 043°09'0 0.0
2018-Mar-15 23:29S 22°54' W 043°09'0 0.0
2018-Mar-15 22:59S 22°54' W 043°09'0 0.1
2018-Mar-15 22:29S 22°54' W 043°09'0 0.0
2018-Mar-15 21:56S 22°54' W 043°09'0 0.0
2018-Mar-15 21:29S 22°54' W 043°09'0 0.0
2018-Mar-15 20:59S 22°54' W 043°09'0 0.0
2018-Mar-15 20:29S 22°54' W 043°09'0 0.0
2018-Mar-15 19:59S 22°54' W 043°09'0 0.0
2018-Mar-15 19:29S 22°54' W 043°09'0 0.0
2018-Mar-15 18:59S 22°54' W 043°09'0 0.0
2018-Mar-15 18:29S 22°54' W 043°09'0 0.0
2018-Mar-15 17:59S 22°54' W 043°09'0 0.0
2018-Mar-15 17:29S 22°54' W 043°09'0 0.0
2018-Mar-15 16:59S 22°54' W 043°09'0 0.0
2018-Mar-15 16:29S 22°54' W 043°09'0 0.0
2018-Mar-15 15:56S 22°54' W 043°09'0 0.0
2018-Mar-15 15:26S 22°54' W 043°09'0 0.0
2018-Mar-15 14:59S 22°54' W 043°09'0 0.0
2018-Mar-15 14:29S 22°54' W 043°09'0 0.0
2018-Mar-15 13:59S 22°54' W 043°09'0 0.1
2018-Mar-15 13:29S 22°54' W 043°09'0 0.0
2018-Mar-15 12:56S 22°54' W 043°09'0 0.0
2018-Mar-15 12:29S 22°54' W 043°09'0 0.0
2018-Mar-15 11:59S 22°54' W 043°09'0 0.0
2018-Mar-15 11:29S 22°54' W 043°09'0 0.0
2018-Mar-15 10:59S 22°54' W 043°09'0 0.0
2018-Mar-15 10:26S 22°54' W 043°09'0 0.0
2018-Mar-15 09:59S 22°54' W 043°09'0 0.0
2018-Mar-15 09:29S 22°54' W 043°09'0 0.0
2018-Mar-15 08:59S 22°54' W 043°09'0 0.0
2018-Mar-15 08:29S 22°54' W 043°09'0 0.0
2018-Mar-15 07:59S 22°54' W 043°09'0 0.0
2018-Mar-15 07:29S 22°54' W 043°09'0 0.0
2018-Mar-15 06:59S 22°54' W 043°09'0 0.1
2018-Mar-15 06:29S 22°54' W 043°09'0 0.0
2018-Mar-15 05:59S 22°54' W 043°09'0 0.0
2018-Mar-15 05:26S 22°54' W 043°09'0 0.0
2018-Mar-15 04:59S 22°54' W 043°09'0 0.0
2018-Mar-15 04:29S 22°54' W 043°09'0 0.1
2018-Mar-15 03:59S 22°54' W 043°09'0 0.0
2018-Mar-15 03:23S 22°54' W 043°09'0 0.0
2018-Mar-15 02:59S 22°54' W 043°09'0 0.0
2018-Mar-15 02:29S 22°54' W 043°09'0 0.0
2018-Mar-15 01:59S 22°54' W 043°09'0 0.0
2018-Mar-15 01:29S 22°54' W 043°09'0 0.0
2018-Mar-15 00:59S 22°54' W 043°09'0 0.0
2018-Mar-15 00:29S 22°54' W 043°09'0 0.1
2018-Mar-14 23:59S 22°54' W 043°09'0 0.1
2018-Mar-14 23:29S 22°54' W 043°09'0 0.0
2018-Mar-14 22:59S 22°54' W 043°09'0 0.0
2018-Mar-14 22:29S 22°54' W 043°09'0 0.0
2018-Mar-14 21:59S 22°54' W 043°09'0 0.0
2018-Mar-14 21:29S 22°54' W 043°09'0 0.0
2018-Mar-14 20:59S 22°54' W 043°09'0 0.0
2018-Mar-14 20:29S 22°54' W 043°09'0 0.0
2018-Mar-14 19:59S 22°54' W 043°09'0 0.0
2018-Mar-14 19:29S 22°54' W 043°09'0 0.0
2018-Mar-14 18:56S 22°54' W 043°09'0 0.0
2018-Mar-14 18:29S 22°54' W 043°09'0 0.1
2018-Mar-14 17:56S 22°54' W 043°09'0 0.0
2018-Mar-14 17:29S 22°54' W 043°09'0 0.0
2018-Mar-14 16:53S 22°54' W 043°09'0 0.0
2018-Mar-14 16:29S 22°54' W 043°09'0 0.0
2018-Mar-14 15:59S 22°54' W 043°09'0 0.0
2018-Mar-14 15:29S 22°54' W 043°09'0 0.0
2018-Mar-14 14:59S 22°54' W 043°09'0 0.0
2018-Mar-14 14:29S 22°54' W 043°09'0 0.0
2018-Mar-14 13:59S 22°54' W 043°09'0 0.0
2018-Mar-14 13:26S 22°54' W 043°09'0 0.0
2018-Mar-14 12:56S 22°54' W 043°09'0 0.0
2018-Mar-14 12:29S 22°54' W 043°09'0 0.0
2018-Mar-14 11:59S 22°54' W 043°09'0 0.1
2018-Mar-14 11:29S 22°54' W 043°09'0 0.0
2018-Mar-14 10:59S 22°54' W 043°09'0 0.0
2018-Mar-14 10:29S 22°54' W 043°09'0 0.0
2018-Mar-14 09:59S 22°54' W 043°09'0 0.0
2018-Mar-14 09:29S 22°54' W 043°09'0 0.0
2018-Mar-14 08:56S 22°54' W 043°09'0 0.0
2018-Mar-14 08:29S 22°54' W 043°09'0 0.0
2018-Mar-14 07:59S 22°54' W 043°09'0 0.0
2018-Mar-14 07:29S 22°54' W 043°09'0 0.0
2018-Mar-14 06:59S 22°54' W 043°09'0 0.0
2018-Mar-14 06:29S 22°54' W 043°09'0 0.0
2018-Mar-14 05:59S 22°54' W 043°09'0 0.0
2018-Mar-14 05:26S 22°54' W 043°09'0 0.1
2018-Mar-14 04:59S 22°54' W 043°09'0 0.0
2018-Mar-14 04:29S 22°54' W 043°09'0 0.0
2018-Mar-14 03:59S 22°54' W 043°09'0 0.0
2018-Mar-14 03:29S 22°54' W 043°09'0 0.0
2018-Mar-14 02:59S 22°54' W 043°09'0 0.0
2018-Mar-14 02:26S 22°54' W 043°09'0 0.0
2018-Mar-14 01:56S 22°54' W 043°09'0 0.0
2018-Mar-14 01:26S 22°54' W 043°09'0 0.0
2018-Mar-14 00:56S 22°54' W 043°09'0 0.0
2018-Mar-14 00:29S 22°54' W 043°09'0 0.0
2018-Mar-13 23:59S 22°54' W 043°09'0 0.0
2018-Mar-13 23:29S 22°54' W 043°09'0 0.1
2018-Mar-13 22:59S 22°54' W 043°09'0 0.0
2018-Mar-13 22:29S 22°54' W 043°09'0 0.0
2018-Mar-13 21:56S 22°54' W 043°09'0 0.0
2018-Mar-13 21:29S 22°54' W 043°09'0 0.0
2018-Mar-13 20:59S 22°54' W 043°09'0 0.0
2018-Mar-13 20:29S 22°54' W 043°09'0 0.0
2018-Mar-13 19:59S 22°54' W 043°09'0 0.0
2018-Mar-13 19:29S 22°54' W 043°09'0 0.0
2018-Mar-13 18:59S 22°54' W 043°09'0 0.0
2018-Mar-13 18:29S 22°54' W 043°09'0 0.0
2018-Mar-13 17:59S 22°54' W 043°09'0 0.0
2018-Mar-13 17:29S 22°54' W 043°09'0 0.0
2018-Mar-13 16:59S 22°54' W 043°09'0 0.0
2018-Mar-13 16:29S 22°54' W 043°09'0 0.0
2018-Mar-13 15:59S 22°54' W 043°09'0 0.0
2018-Mar-13 15:29S 22°54' W 043°09'0 0.0
2018-Mar-13 14:59S 22°54' W 043°09'0 0.0
2018-Mar-13 14:29S 22°54' W 043°09'0 0.0
2018-Mar-13 13:59S 22°54' W 043°09'0 0.0
2018-Mar-13 13:29S 22°54' W 043°09'0 0.0
2018-Mar-13 12:59S 22°54' W 043°09'0 0.0
2018-Mar-13 12:29S 22°54' W 043°09'0 0.0
2018-Mar-13 11:59S 22°54' W 043°09'0 0.0
2018-Mar-13 11:29S 22°54' W 043°09'0 0.0
2018-Mar-13 10:59S 22°54' W 043°09'0 0.0
2018-Mar-13 10:29S 22°54' W 043°09'0 0.0
2018-Mar-13 09:59S 22°54' W 043°09'0 0.0
2018-Mar-13 09:29S 22°54' W 043°09'0 0.0
2018-Mar-13 08:59S 22°54' W 043°09'0 0.0
2018-Mar-13 08:29S 22°54' W 043°09'0 0.0
2018-Mar-13 07:59S 22°54' W 043°09'0 0.0
2018-Mar-13 07:29S 22°54' W 043°09'0 0.0
2018-Mar-13 06:59S 22°54' W 043°09'0 0.0
2018-Mar-13 06:29S 22°54' W 043°09'0 0.0
2018-Mar-13 05:59S 22°54' W 043°09'0 0.0
2018-Mar-13 05:29S 22°54' W 043°09'0 0.0
2018-Mar-13 04:59S 22°54' W 043°09'0 0.0
2018-Mar-13 04:29S 22°54' W 043°09'0 0.0
2018-Mar-13 03:59S 22°54' W 043°09'0 0.0
2018-Mar-13 03:29S 22°54' W 043°09'0 0.0
2018-Mar-13 02:56S 22°54' W 043°09'0 0.0
2018-Mar-13 02:29S 22°54' W 043°09'0 0.0
2018-Mar-13 01:56S 22°54' W 043°09'0 0.0
2018-Mar-13 01:26S 22°54' W 043°09'0 0.0
2018-Mar-13 00:59S 22°54' W 043°09'0 0.0
2018-Mar-13 00:29S 22°54' W 043°09'0 0.0
2018-Mar-12 23:59S 22°54' W 043°09'0 0.0
2018-Mar-12 23:29S 22°54' W 043°09'0 0.0
2018-Mar-12 22:56S 22°54' W 043°09'0 0.0
2018-Mar-12 22:26S 22°54' W 043°09'0 0.0
2018-Mar-12 21:59S 22°54' W 043°09'0 0.1
2018-Mar-12 21:29S 22°54' W 043°09'0 0.0
2018-Mar-12 20:59S 22°54' W 043°09'0 0.0
2018-Mar-12 20:29S 22°54' W 043°09'0 0.0
2018-Mar-12 19:59S 22°54' W 043°09'0 0.0
2018-Mar-12 19:29S 22°54' W 043°09'0 0.0
2018-Mar-12 18:59S 22°54' W 043°09'0 0.0
2018-Mar-12 18:29S 22°54' W 043°09'0 0.0
2018-Mar-12 17:59S 22°54' W 043°09'0 0.0
2018-Mar-12 17:29S 22°54' W 043°09'0 0.0
2018-Mar-12 16:59S 22°54' W 043°09'0 0.0
2018-Mar-12 16:29S 22°54' W 043°09'0 0.0
2018-Mar-12 15:59S 22°54' W 043°09'0 0.0
2018-Mar-12 15:26S 22°54' W 043°09'0 0.0
2018-Mar-12 14:59S 22°54' W 043°09'0 0.0
2018-Mar-12 14:29S 22°54' W 043°09'0 0.0
2018-Mar-12 13:56S 22°54' W 043°09'0 0.0
2018-Mar-12 13:29S 22°54' W 043°09'0 0.0
2018-Mar-12 12:59S 22°54' W 043°09'0 0.0
2018-Mar-12 12:29S 22°54' W 043°09'0 0.0
2018-Mar-12 11:59S 22°54' W 043°09'0 0.0
2018-Mar-12 11:29S 22°54' W 043°09'0 0.0
2018-Mar-12 02:53S 22°54' W 043°09'0 0.0
2018-Mar-12 02:29S 22°54' W 043°09'0 0.0
2018-Mar-12 01:59S 22°54' W 043°09'0 0.0
2018-Mar-12 01:29S 22°54' W 043°09'0 0.0
2018-Mar-12 00:59S 22°54' W 043°09'0 0.0
2018-Mar-12 00:26S 22°54' W 043°09'0 0.0
2018-Mar-11 23:59S 22°54' W 043°09'0 0.0
2018-Mar-11 23:29S 22°54' W 043°09'0 0.0
2018-Mar-11 22:59S 22°54' W 043°09'0 0.0
2018-Mar-11 22:29S 22°54' W 043°09'0 0.0
2018-Mar-11 21:56S 22°54' W 043°09'0 0.0
2018-Mar-11 21:29S 22°54' W 043°09'0 0.0
2018-Mar-11 20:59S 22°54' W 043°09'0 0.0
2018-Mar-11 20:29S 22°54' W 043°09'0 0.0
2018-Mar-11 19:59S 22°54' W 043°09'0 0.0
2018-Mar-11 19:29S 22°54' W 043°09'0 0.0
2018-Mar-11 18:56S 22°54' W 043°09'0 0.0
2018-Mar-11 18:29S 22°54' W 043°09'0 0.0
2018-Mar-11 17:59S 22°54' W 043°09'0 0.0
2018-Mar-11 17:29S 22°54' W 043°09'0 0.0
2018-Mar-11 16:59S 22°54' W 043°09'0 0.0
2018-Mar-11 16:29S 22°54' W 043°09'  
Track history (hours):
 
Tides and Currents Weather Stations Pressure Air Temp Water Temp Dewpoint Dewpoint Depression Visibility Wind Speed Wind Dir Waves Ship Positions

Odn II

Last reported at 2018-Mar-21 16:26 UTC. Time now 2018-Aug-14 13:45 UTC.
Position S 23°05' W 042°50'.
Warning: this ship's position is months out of date.

Length 238 m; draft 10 m.

Type: Other ship. MMSI: 311041300.

Date/timePositionNaut miles runAvg speedWind from/ knotsBaromVisibWave heightAir tempDewpointWater temp
2018-Mar-21 16:26S 23°05' W 042°50'3 6.1
2018-Mar-21 16:00S 23°05' W 042°52'3 6.0
2018-Mar-21 15:30S 23°05' W 042°56'3 6.0
2018-Mar-21 15:00S 23°04' W 042°59'3 6.9
2018-Mar-21 14:30S 23°03' W 043°02'3 6.8
2018-Mar-21 14:00S 23°02' W 043°06'3 6.5
2018-Mar-21 13:30S 22°60' W 043°08'1 2.3
2018-Mar-21 13:00S 22°59' W 043°10'2 4.9
2018-Mar-21 12:30S 22°57' W 043°09'3 5.5
2018-Mar-21 11:59S 22°54' W 043°09'0 0.3
2018-Mar-21 11:26S 22°54' W 043°09'0 0.1
2018-Mar-21 10:59S 22°54' W 043°09'0 0.1
2018-Mar-21 10:29S 22°54' W 043°09'0 0.1
2018-Mar-21 09:59S 22°54' W 043°09'0 0.0
2018-Mar-21 09:26S 22°54' W 043°09'0 0.0
2018-Mar-21 08:59S 22°54' W 043°09'0 0.0
2018-Mar-21 08:29S 22°54' W 043°09'0 0.0
2018-Mar-21 07:59S 22°54' W 043°09'0 0.0
2018-Mar-21 07:29S 22°54' W 043°09'0 0.0
2018-Mar-21 06:59S 22°54' W 043°09'0 0.0
2018-Mar-21 06:26S 22°54' W 043°09'0 0.0
2018-Mar-21 05:59S 22°54' W 043°09'0 0.0
2018-Mar-21 05:29S 22°54' W 043°09'0 0.0
2018-Mar-21 04:59S 22°54' W 043°09'0 0.0
2018-Mar-21 04:29S 22°54' W 043°09'0 0.0
2018-Mar-21 03:59S 22°54' W 043°09'0 0.0
2018-Mar-21 03:29S 22°54' W 043°09'0 0.0
2018-Mar-21 02:59S 22°54' W 043°09'0 0.0
2018-Mar-21 02:29S 22°54' W 043°09'0 0.0
2018-Mar-21 01:59S 22°54' W 043°09'0 0.0
2018-Mar-21 01:29S 22°54' W 043°09'0 0.0
2018-Mar-21 00:59S 22°54' W 043°09'0 0.0
2018-Mar-21 00:29S 22°54' W 043°09'0 0.0
2018-Mar-20 23:59S 22°54' W 043°09'0 0.0
2018-Mar-20 23:29S 22°54' W 043°09'0 0.0
2018-Mar-20 22:59S 22°54' W 043°09'0 0.0
2018-Mar-20 22:29S 22°54' W 043°09'0 0.0
2018-Mar-20 21:56S 22°54' W 043°09'0 0.0
2018-Mar-20 21:29S 22°54' W 043°09'0 0.0
2018-Mar-20 20:59S 22°54' W 043°09'0 0.0
2018-Mar-20 20:29S 22°54' W 043°09'0 0.0
2018-Mar-20 19:59S 22°54' W 043°09'0 0.0
2018-Mar-20 19:29S 22°54' W 043°09'0 0.1
2018-Mar-20 18:59S 22°54' W 043°09'0 0.0
2018-Mar-20 18:29S 22°54' W 043°09'0 0.0
2018-Mar-20 17:59S 22°54' W 043°09'0 0.0
2018-Mar-20 17:29S 22°54' W 043°09'0 0.0
2018-Mar-20 16:59S 22°54' W 043°09'0 0.0
2018-Mar-20 16:23S 22°54' W 043°09'0 0.0
2018-Mar-20 15:59S 22°54' W 043°09'0 0.0
2018-Mar-20 15:29S 22°54' W 043°09'0 0.0
2018-Mar-20 14:59S 22°54' W 043°09'0 0.0
2018-Mar-20 14:29S 22°54' W 043°09'0 0.0
2018-Mar-20 13:59S 22°54' W 043°09'0 0.0
2018-Mar-20 13:29S 22°54' W 043°09'0 0.0
2018-Mar-20 12:59S 22°54' W 043°09'0 0.0
2018-Mar-20 12:29S 22°54' W 043°09'0 0.0
2018-Mar-20 11:59S 22°54' W 043°09'0 0.0
2018-Mar-20 11:29S 22°54' W 043°09'0 0.0
2018-Mar-20 10:59S 22°54' W 043°09'0 0.0
2018-Mar-20 10:29S 22°54' W 043°09'0 0.0
2018-Mar-20 09:59S 22°54' W 043°09'0 0.0
2018-Mar-20 09:29S 22°54' W 043°09'0 0.0
2018-Mar-20 08:59S 22°54' W 043°09'0 0.1
2018-Mar-20 08:29S 22°54' W 043°09'0 0.0
2018-Mar-20 07:59S 22°54' W 043°09'0 0.0
2018-Mar-20 07:29S 22°54' W 043°09'0 0.1
2018-Mar-20 06:59S 22°54' W 043°09'0 0.0
2018-Mar-20 06:29S 22°54' W 043°09'0 0.0
2018-Mar-20 05:59S 22°54' W 043°09'0 0.1
2018-Mar-20 05:29S 22°54' W 043°09'0 0.0
2018-Mar-20 04:59S 22°54' W 043°09'0 0.0
2018-Mar-20 04:29S 22°54' W 043°09'0 0.0
2018-Mar-20 03:59S 22°54' W 043°09'0 0.0
2018-Mar-20 03:29S 22°54' W 043°09'0 0.0
2018-Mar-20 02:59S 22°54' W 043°09'0 0.0
2018-Mar-20 02:29S 22°54' W 043°09'0 0.0
2018-Mar-20 01:59S 22°54' W 043°09'0 0.0
2018-Mar-20 01:29S 22°54' W 043°09'0 0.0
2018-Mar-20 00:59S 22°54' W 043°09'0 0.0
2018-Mar-20 00:29S 22°54' W 043°09'0 0.0
2018-Mar-19 23:59S 22°54' W 043°09'0 0.0
2018-Mar-19 23:29S 22°54' W 043°09'0 0.0
2018-Mar-19 22:56S 22°54' W 043°09'0 0.0
2018-Mar-19 22:29S 22°54' W 043°09'0 0.0
2018-Mar-19 21:59S 22°54' W 043°09'0 0.0
2018-Mar-19 21:29S 22°54' W 043°09'0 0.0
2018-Mar-19 20:59S 22°54' W 043°09'0 0.0
2018-Mar-19 20:29S 22°54' W 043°09'0 0.0
2018-Mar-19 19:59S 22°54' W 043°09'0 0.0
2018-Mar-19 19:29S 22°54' W 043°09'0 0.0
2018-Mar-19 18:59S 22°54' W 043°09'0 0.1
2018-Mar-19 18:29S 22°54' W 043°09'0 0.0
2018-Mar-19 17:59S 22°54' W 043°09'0 0.0
2018-Mar-19 17:29S 22°54' W 043°09'0 0.0
2018-Mar-19 16:59S 22°54' W 043°09'0 0.0
2018-Mar-19 16:26S 22°54' W 043°09'0 0.0
2018-Mar-19 15:59S 22°54' W 043°09'0 0.0
2018-Mar-19 15:29S 22°54' W 043°09'0 0.1
2018-Mar-19 14:59S 22°54' W 043°09'0 0.0
2018-Mar-19 14:29S 22°54' W 043°09'0 0.0
2018-Mar-19 13:59S 22°54' W 043°09'0 0.0
2018-Mar-19 13:29S 22°54' W 043°09'0 0.0
2018-Mar-19 12:59S 22°54' W 043°09'0 0.0
2018-Mar-19 12:29S 22°54' W 043°09'0 0.0
2018-Mar-19 11:59S 22°54' W 043°09'0 0.0
2018-Mar-19 11:29S 22°54' W 043°09'0 0.0
2018-Mar-19 10:59S 22°54' W 043°09'0 0.0
2018-Mar-19 10:29S 22°54' W 043°09'0 0.0
2018-Mar-19 09:59S 22°54' W 043°09'0 0.0
2018-Mar-19 09:29S 22°54' W 043°09'0 0.0
2018-Mar-19 08:59S 22°54' W 043°09'0 0.0
2018-Mar-19 08:29S 22°54' W 043°09'0 0.0
2018-Mar-19 07:59S 22°54' W 043°09'0 0.0
2018-Mar-19 07:29S 22°54' W 043°09'0 0.0
2018-Mar-19 06:59S 22°54' W 043°09'0 0.1
2018-Mar-19 06:29S 22°54' W 043°09'0 0.0
2018-Mar-19 05:59S 22°54' W 043°09'0 0.0
2018-Mar-19 05:29S 22°54' W 043°09'0 0.0
2018-Mar-19 04:59S 22°54' W 043°09'0 0.0
2018-Mar-19 04:29S 22°54' W 043°09'0 0.0
2018-Mar-19 03:59S 22°54' W 043°09'0 0.0
2018-Mar-19 03:29S 22°54' W 043°09'0 0.0
2018-Mar-19 02:59S 22°54' W 043°09'0 0.0
2018-Mar-19 02:26S 22°54' W 043°09'0 0.0
2018-Mar-19 01:59S 22°54' W 043°09'0 0.1
2018-Mar-19 01:29S 22°54' W 043°09'0 0.0
2018-Mar-19 00:59S 22°54' W 043°09'0 0.0
2018-Mar-19 00:29S 22°54' W 043°09'0 0.0
2018-Mar-18 23:59S 22°54' W 043°09'0 0.0
2018-Mar-18 23:29S 22°54' W 043°09'0 0.0
2018-Mar-18 22:59S 22°54' W 043°09'0 0.0
2018-Mar-18 22:29S 22°54' W 043°09'0 0.0
2018-Mar-18 21:59S 22°54' W 043°09'0 0.0
2018-Mar-18 21:26S 22°54' W 043°09'0 0.0
2018-Mar-18 20:59S 22°54' W 043°09'0 0.0
2018-Mar-18 20:29S 22°54' W 043°09'0 0.0
2018-Mar-18 19:59S 22°54' W 043°09'0 0.0
2018-Mar-18 19:29S 22°54' W 043°09'0 0.0
2018-Mar-18 18:59S 22°54' W 043°09'0 0.1
2018-Mar-18 18:29S 22°54' W 043°09'0 0.0
2018-Mar-18 17:59S 22°54' W 043°09'0 0.0
2018-Mar-18 17:29S 22°54' W 043°09'0 0.0
2018-Mar-18 16:59S 22°54' W 043°09'0 0.1
2018-Mar-18 16:29S 22°54' W 043°09'0 0.1
2018-Mar-18 15:59S 22°54' W 043°09'0 0.0
2018-Mar-18 15:29S 22°54' W 043°09'0 0.0
2018-Mar-18 14:59S 22°54' W 043°09'0 0.0
2018-Mar-18 14:29S 22°54' W 043°09'0 0.0
2018-Mar-18 13:59S 22°54' W 043°09'0 0.0
2018-Mar-18 13:29S 22°54' W 043°09'0 0.0
2018-Mar-18 12:59S 22°54' W 043°09'0 0.0
2018-Mar-18 12:23S 22°54' W 043°09'0 0.0
2018-Mar-18 11:59S 22°54' W 043°09'0 0.0
2018-Mar-18 11:29S 22°54' W 043°09'0 0.0
2018-Mar-18 10:56S 22°54' W 043°09'0 0.0
2018-Mar-18 10:29S 22°54' W 043°09'0 0.0
2018-Mar-18 09:59S 22°54' W 043°09'0 0.0
2018-Mar-18 09:29S 22°54' W 043°09'0 0.0
2018-Mar-18 08:59S 22°54' W 043°09'0 0.0
2018-Mar-18 08:26S 22°54' W 043°09'0 0.0
2018-Mar-18 07:59S 22°54' W 043°09'0 0.0
2018-Mar-18 07:29S 22°54' W 043°09'0 0.0
2018-Mar-18 06:59S 22°54' W 043°09'0 0.0
2018-Mar-18 06:29S 22°54' W 043°09'0 0.0
2018-Mar-18 05:59S 22°54' W 043°09'0 0.0
2018-Mar-18 05:29S 22°54' W 043°09'0 0.1
2018-Mar-18 04:59S 22°54' W 043°09'0 0.0
2018-Mar-18 04:29S 22°54' W 043°09'0 0.0
2018-Mar-18 03:59S 22°54' W 043°09'0 0.0
2018-Mar-18 03:29S 22°54' W 043°09'0 0.0
2018-Mar-18 02:59S 22°54' W 043°09'0 0.0
2018-Mar-18 02:29S 22°54' W 043°09'0 0.0
2018-Mar-18 01:59S 22°54' W 043°09'0 0.0
2018-Mar-18 01:26S 22°54' W 043°09'0 0.0
2018-Mar-18 00:50S 22°54' W 043°09'0 0.0
2018-Mar-18 00:29S 22°54' W 043°09'0 0.0
2018-Mar-17 23:59S 22°54' W 043°09'0 0.0
2018-Mar-17 23:29S 22°54' W 043°09'0 0.0
2018-Mar-17 22:59S 22°54' W 043°09'0 0.0
2018-Mar-17 22:29S 22°54' W 043°09'0 0.0
2018-Mar-17 21:59S 22°54' W 043°09'0 0.0
2018-Mar-17 21:29S 22°54' W 043°09'0 0.0
2018-Mar-17 20:59S 22°54' W 043°09'0 0.0
2018-Mar-17 20:29S 22°54' W 043°09'0 0.0
2018-Mar-17 19:56S 22°54' W 043°09'0 0.0
2018-Mar-17 19:29S 22°54' W 043°09'0 0.0
2018-Mar-17 18:59S 22°54' W 043°09'0 0.0
2018-Mar-17 18:26S 22°54' W 043°09'0 0.0
2018-Mar-17 17:59S 22°54' W 043°09'0 0.1
2018-Mar-17 17:29S 22°54' W 043°09'0 0.0
2018-Mar-17 16:59S 22°54' W 043°09'0 0.0
2018-Mar-17 16:29S 22°54' W 043°09'0 0.1
2018-Mar-17 15:59S 22°54' W 043°09'0 0.0
2018-Mar-17 15:29S 22°54' W 043°09'0 0.1
2018-Mar-17 14:59S 22°54' W 043°09'0 0.1
2018-Mar-17 14:29S 22°54' W 043°09'0 0.1
2018-Mar-17 13:59S 22°54' W 043°09'0 0.0
2018-Mar-17 13:29S 22°54' W 043°09'0 0.0
2018-Mar-17 12:59S 22°54' W 043°09'0 0.0
2018-Mar-17 12:29S 22°54' W 043°09'0 0.0
2018-Mar-17 11:59S 22°54' W 043°09'0 0.0
2018-Mar-17 11:29S 22°54' W 043°09'0 0.0
2018-Mar-17 10:59S 22°54' W 043°09'0 0.0
2018-Mar-17 10:29S 22°54' W 043°09'0 0.1
2018-Mar-17 09:59S 22°54' W 043°09'0 0.0
2018-Mar-17 09:29S 22°54' W 043°09'0 0.1
2018-Mar-17 08:59S 22°54' W 043°09'0 0.0
2018-Mar-17 08:29S 22°54' W 043°09'0 0.0
2018-Mar-17 07:56S 22°54' W 043°09'0 0.0
2018-Mar-17 07:26S 22°54' W 043°09'0 0.0
2018-Mar-17 06:56S 22°54' W 043°09'0 0.0
2018-Mar-17 06:29S 22°54' W 043°09'0 0.0
2018-Mar-17 05:59S 22°54' W 043°09'0 0.0
2018-Mar-17 05:29S 22°54' W 043°09'0 0.0
2018-Mar-17 04:56S 22°54' W 043°09'0 0.0
2018-Mar-17 04:29S 22°54' W 043°09'0 0.1
2018-Mar-17 03:59S 22°54' W 043°09'0 0.0
2018-Mar-17 03:29S 22°54' W 043°09'0 0.0
2018-Mar-17 02:59S 22°54' W 043°09'0 0.0
2018-Mar-17 02:29S 22°54' W 043°09'0 0.0
2018-Mar-17 01:59S 22°54' W 043°09'0 0.0
2018-Mar-17 01:29S 22°54' W 043°09'0 0.0
2018-Mar-17 00:59S 22°54' W 043°09'0 0.0
2018-Mar-17 00:29S 22°54' W 043°09'0 0.0
2018-Mar-16 23:56S 22°54' W 043°09'0 0.0
2018-Mar-16 23:29S 22°54' W 043°09'0 0.0
2018-Mar-16 22:59S 22°54' W 043°09'0 0.0
2018-Mar-16 22:29S 22°54' W 043°09'0 0.0
2018-Mar-16 21:59S 22°54' W 043°09'0 0.0
2018-Mar-16 21:29S 22°54' W 043°09'0 0.0
2018-Mar-16 20:59S 22°54' W 043°09'0 0.0
2018-Mar-16 20:29S 22°54' W 043°09'0 0.0
2018-Mar-16 19:59S 22°54' W 043°09'0 0.0
2018-Mar-16 19:26S 22°54' W 043°09'0 0.0
2018-Mar-16 18:59S 22°54' W 043°09'0 0.0
2018-Mar-16 18:29S 22°54' W 043°09'0 0.0
2018-Mar-16 17:59S 22°54' W 043°09'0 0.0
2018-Mar-16 17:29S 22°54' W 043°09'0 0.0
2018-Mar-16 16:59S 22°54' W 043°09'0 0.0
2018-Mar-16 16:29S 22°54' W 043°09'0 0.0
2018-Mar-16 15:59S 22°54' W 043°09'0 0.0
2018-Mar-16 15:29S 22°54' W 043°09'0 0.0
2018-Mar-16 14:59S 22°54' W 043°09'0 0.0
2018-Mar-16 14:29S 22°54' W 043°09'0 0.0
2018-Mar-16 13:59S 22°54' W 043°09'0 0.0
2018-Mar-16 13:29S 22°54' W 043°09'0 0.0
2018-Mar-16 12:59S 22°54' W 043°09'0 0.0
2018-Mar-16 12:29S 22°54' W 043°09'0 0.0
2018-Mar-16 11:59S 22°54' W 043°09'0 0.0
2018-Mar-16 11:29S 22°54' W 043°09'0 0.0
2018-Mar-16 10:59S 22°54' W 043°09'0 0.0
2018-Mar-16 10:29S 22°54' W 043°09'0 0.0
2018-Mar-16 09:59S 22°54' W 043°09'0 0.0
2018-Mar-16 09:29S 22°54' W 043°09'0 0.0
2018-Mar-16 08:59S 22°54' W 043°09'0 0.0
2018-Mar-16 08:26S 22°54' W 043°09'0 0.0
2018-Mar-16 07:59S 22°54' W 043°09'0 0.0
2018-Mar-16 07:29S 22°54' W 043°09'0 0.0
2018-Mar-16 06:59S 22°54' W 043°09'0 0.0
2018-Mar-16 06:26S 22°54' W 043°09'0 0.1
2018-Mar-16 05:59S 22°54' W 043°09'0 0.0
2018-Mar-16 05:29S 22°54' W 043°09'0 0.0
2018-Mar-16 04:59S 22°54' W 043°09'0 0.0
2018-Mar-16 04:29S 22°54' W 043°09'0 0.1
2018-Mar-16 03:59S 22°54' W 043°09'0 0.0
2018-Mar-16 03:29S 22°54' W 043°09'0 0.0
2018-Mar-16 02:59S 22°54' W 043°09'0 0.0
2018-Mar-16 02:29S 22°54' W 043°09'0 0.0
2018-Mar-16 00:17S 22°54' W 043°09'0 0.0
2018-Mar-15 23:59S 22°54' W 043°09'0 0.0
2018-Mar-15 23:29S 22°54' W 043°09'0 0.0
2018-Mar-15 22:59S 22°54' W 043°09'0 0.1
2018-Mar-15 22:29S 22°54' W 043°09'0 0.0
2018-Mar-15 21:56S 22°54' W 043°09'0 0.0
2018-Mar-15 21:29S 22°54' W 043°09'0 0.0
2018-Mar-15 20:59S 22°54' W 043°09'0 0.0
2018-Mar-15 20:29S 22°54' W 043°09'0 0.0
2018-Mar-15 19:59S 22°54' W 043°09'0 0.0
2018-Mar-15 19:29S 22°54' W 043°09'0 0.0
2018-Mar-15 18:59S 22°54' W 043°09'0 0.0
2018-Mar-15 18:29S 22°54' W 043°09'0 0.0
2018-Mar-15 17:59S 22°54' W 043°09'0 0.0
2018-Mar-15 17:29S 22°54' W 043°09'0 0.0
2018-Mar-15 16:59S 22°54' W 043°09'0 0.0
2018-Mar-15 16:29S 22°54' W 043°09'0 0.0
2018-Mar-15 15:56S 22°54' W 043°09'0 0.0
2018-Mar-15 15:26S 22°54' W 043°09'0 0.0
2018-Mar-15 14:59S 22°54' W 043°09'0 0.0
2018-Mar-15 14:29S 22°54' W 043°09'0 0.0
2018-Mar-15 13:59S 22°54' W 043°09'0 0.1
2018-Mar-15 13:29S 22°54' W 043°09'0 0.0
2018-Mar-15 12:56S 22°54' W 043°09'0 0.0
2018-Mar-15 12:29S 22°54' W 043°09'0 0.0
2018-Mar-15 11:59S 22°54' W 043°09'0 0.0
2018-Mar-15 11:29S 22°54' W 043°09'0 0.0
2018-Mar-15 10:59S 22°54' W 043°09'0 0.0
2018-Mar-15 10:26S 22°54' W 043°09'0 0.0
2018-Mar-15 09:59S 22°54' W 043°09'0 0.0
2018-Mar-15 09:29S 22°54' W 043°09'0 0.0
2018-Mar-15 08:59S 22°54' W 043°09'0 0.0
2018-Mar-15 08:29S 22°54' W 043°09'0 0.0
2018-Mar-15 07:59S 22°54' W 043°09'0 0.0
2018-Mar-15 07:29S 22°54' W 043°09'0 0.0
2018-Mar-15 06:59S 22°54' W 043°09'0 0.1
2018-Mar-15 06:29S 22°54' W 043°09'0 0.0
2018-Mar-15 05:59S 22°54' W 043°09'0 0.0
2018-Mar-15 05:26S 22°54' W 043°09'0 0.0
2018-Mar-15 04:59S 22°54' W 043°09'0 0.0
2018-Mar-15 04:29S 22°54' W 043°09'0 0.1
2018-Mar-15 03:59S 22°54' W 043°09'0 0.0
2018-Mar-15 03:23S 22°54' W 043°09'0 0.0
2018-Mar-15 02:59S 22°54' W 043°09'0 0.0
2018-Mar-15 02:29S 22°54' W 043°09'0 0.0
2018-Mar-15 01:59S 22°54' W 043°09'0 0.0
2018-Mar-15 01:29S 22°54' W 043°09'0 0.0
2018-Mar-15 00:59S 22°54' W 043°09'0 0.0
2018-Mar-15 00:29S 22°54' W 043°09'0 0.1
2018-Mar-14 23:59S 22°54' W 043°09'0 0.1
2018-Mar-14 23:29S 22°54' W 043°09'0 0.0
2018-Mar-14 22:59S 22°54' W 043°09'0 0.0
2018-Mar-14 22:29S 22°54' W 043°09'0 0.0
2018-Mar-14 21:59S 22°54' W 043°09'0 0.0
2018-Mar-14 21:29S 22°54' W 043°09'0 0.0
2018-Mar-14 20:59S 22°54' W 043°09'0 0.0
2018-Mar-14 20:29S 22°54' W 043°09'0 0.0
2018-Mar-14 19:59S 22°54' W 043°09'0 0.0
2018-Mar-14 19:29S 22°54' W 043°09'0 0.0
2018-Mar-14 18:56S 22°54' W 043°09'0 0.0
2018-Mar-14 18:29S 22°54' W 043°09'0 0.1
2018-Mar-14 17:56S 22°54' W 043°09'0 0.0
2018-Mar-14 17:29S 22°54' W 043°09'0 0.0
2018-Mar-14 16:53S 22°54' W 043°09'0 0.0
2018-Mar-14 16:29S 22°54' W 043°09'0 0.0
2018-Mar-14 15:59S 22°54' W 043°09'0 0.0
2018-Mar-14 15:29S 22°54' W 043°09'0 0.0
2018-Mar-14 14:59S 22°54' W 043°09'0 0.0
2018-Mar-14 14:29S 22°54' W 043°09'0 0.0
2018-Mar-14 13:59S 22°54' W 043°09'0 0.0
2018-Mar-14 13:26S 22°54' W 043°09'0 0.0
2018-Mar-14 12:56S 22°54' W 043°09'0 0.0
2018-Mar-14 12:29S 22°54' W 043°09'0 0.0
2018-Mar-14 11:59S 22°54' W 043°09'0 0.1
2018-Mar-14 11:29S 22°54' W 043°09'0 0.0
2018-Mar-14 10:59S 22°54' W 043°09'0 0.0
2018-Mar-14 10:29S 22°54' W 043°09'0 0.0
2018-Mar-14 09:59S 22°54' W 043°09'0 0.0
2018-Mar-14 09:29S 22°54' W 043°09'0 0.0
2018-Mar-14 08:56S 22°54' W 043°09'0 0.0
2018-Mar-14 08:29S 22°54' W 043°09'0 0.0
2018-Mar-14 07:59S 22°54' W 043°09'0 0.0
2018-Mar-14 07:29S 22°54' W 043°09'0 0.0
2018-Mar-14 06:59S 22°54' W 043°09'0 0.0
2018-Mar-14 06:29S 22°54' W 043°09'0 0.0
2018-Mar-14 05:59S 22°54' W 043°09'0 0.0
2018-Mar-14 05:26S 22°54' W 043°09'0 0.1
2018-Mar-14 04:59S 22°54' W 043°09'0 0.0
2018-Mar-14 04:29S 22°54' W 043°09'0 0.0
2018-Mar-14 03:59S 22°54' W 043°09'0 0.0
2018-Mar-14 03:29S 22°54' W 043°09'0 0.0
2018-Mar-14 02:59S 22°54' W 043°09'0 0.0
2018-Mar-14 02:26S 22°54' W 043°09'0 0.0
2018-Mar-14 01:56S 22°54' W 043°09'0 0.0
2018-Mar-14 01:26S 22°54' W 043°09'0 0.0
2018-Mar-14 00:56S 22°54' W 043°09'0 0.0
2018-Mar-14 00:29S 22°54' W 043°09'0 0.0
2018-Mar-13 23:59S 22°54' W 043°09'0 0.0
2018-Mar-13 23:29S 22°54' W 043°09'0 0.1
2018-Mar-13 22:59S 22°54' W 043°09'0 0.0
2018-Mar-13 22:29S 22°54' W 043°09'0 0.0
2018-Mar-13 21:56S 22°54' W 043°09'0 0.0
2018-Mar-13 21:29S 22°54' W 043°09'0 0.0
2018-Mar-13 20:59S 22°54' W 043°09'0 0.0
2018-Mar-13 20:29S 22°54' W 043°09'0 0.0
2018-Mar-13 19:59S 22°54' W 043°09'0 0.0
2018-Mar-13 19:29S 22°54' W 043°09'0 0.0
2018-Mar-13 18:59S 22°54' W 043°09'0 0.0
2018-Mar-13 18:29S 22°54' W 043°09'0 0.0
2018-Mar-13 17:59S 22°54' W 043°09'0 0.0
2018-Mar-13 17:29S 22°54' W 043°09'0 0.0
2018-Mar-13 16:59S 22°54' W 043°09'0 0.0
2018-Mar-13 16:29S 22°54' W 043°09'0 0.0
2018-Mar-13 15:59S 22°54' W 043°09'0 0.0
2018-Mar-13 15:29S 22°54' W 043°09'0 0.0
2018-Mar-13 14:59S 22°54' W 043°09'0 0.0
2018-Mar-13 14:29S 22°54' W 043°09'0 0.0
2018-Mar-13 13:59S 22°54' W 043°09'0 0.0
2018-Mar-13 13:29S 22°54' W 043°09'0 0.0
2018-Mar-13 12:59S 22°54' W 043°09'0 0.0
2018-Mar-13 12:29S 22°54' W 043°09'0 0.0
2018-Mar-13 11:59S 22°54' W 043°09'0 0.0
2018-Mar-13 11:29S 22°54' W 043°09'0 0.0
2018-Mar-13 10:59S 22°54' W 043°09'0 0.0
2018-Mar-13 10:29S 22°54' W 043°09'0 0.0
2018-Mar-13 09:59S 22°54' W 043°09'0 0.0
2018-Mar-13 09:29S 22°54' W 043°09'0 0.0
2018-Mar-13 08:59S 22°54' W 043°09'0 0.0
2018-Mar-13 08:29S 22°54' W 043°09'0 0.0
2018-Mar-13 07:59S 22°54' W 043°09'0 0.0
2018-Mar-13 07:29S 22°54' W 043°09'0 0.0
2018-Mar-13 06:59S 22°54' W 043°09'0 0.0
2018-Mar-13 06:29S 22°54' W 043°09'0 0.0
2018-Mar-13 05:59S 22°54' W 043°09'0 0.0
2018-Mar-13 05:29S 22°54' W 043°09'0 0.0
2018-Mar-13 04:59S 22°54' W 043°09'0 0.0
2018-Mar-13 04:29S 22°54' W 043°09'0 0.0
2018-Mar-13 03:59S 22°54' W 043°09'0 0.0
2018-Mar-13 03:29S 22°54' W 043°09'0 0.0
2018-Mar-13 02:56S 22°54' W 043°09'0 0.0
2018-Mar-13 02:29S 22°54' W 043°09'0 0.0
2018-Mar-13 01:56S 22°54' W 043°09'0 0.0
2018-Mar-13 01:26S 22°54' W 043°09'0 0.0
2018-Mar-13 00:59S 22°54' W 043°09'0 0.0
2018-Mar-13 00:29S 22°54' W 043°09'0 0.0
2018-Mar-12 23:59S 22°54' W 043°09'0 0.0
2018-Mar-12 23:29S 22°54' W 043°09'0 0.0
2018-Mar-12 22:56S 22°54' W 043°09'0 0.0
2018-Mar-12 22:26S 22°54' W 043°09'0 0.0
2018-Mar-12 21:59S 22°54' W 043°09'0 0.1
2018-Mar-12 21:29S 22°54' W 043°09'0 0.0
2018-Mar-12 20:59S 22°54' W 043°09'0 0.0
2018-Mar-12 20:29S 22°54' W 043°09'0 0.0
2018-Mar-12 19:59S 22°54' W 043°09'0 0.0
2018-Mar-12 19:29S 22°54' W 043°09'0 0.0
2018-Mar-12 18:59S 22°54' W 043°09'0 0.0
2018-Mar-12 18:29S 22°54' W 043°09'0 0.0
2018-Mar-12 17:59S 22°54' W 043°09'0 0.0
2018-Mar-12 17:29S 22°54' W 043°09'0 0.0
2018-Mar-12 16:59S 22°54' W 043°09'0 0.0
2018-Mar-12 16:29S 22°54' W 043°09'0 0.0
2018-Mar-12 15:59S 22°54' W 043°09'0 0.0
2018-Mar-12 15:26S 22°54' W 043°09'0 0.0
2018-Mar-12 14:59S 22°54' W 043°09'0 0.0
2018-Mar-12 14:29S 22°54' W 043°09'0 0.0
2018-Mar-12 13:56S 22°54' W 043°09'0 0.0
2018-Mar-12 13:29S 22°54' W 043°09'0 0.0
2018-Mar-12 12:59S 22°54' W 043°09'0 0.0
2018-Mar-12 12:29S 22°54' W 043°09'0 0.0
2018-Mar-12 11:59S 22°54' W 043°09'0 0.0
2018-Mar-12 11:29S 22°54' W 043°09'0 0.0
2018-Mar-12 02:53S 22°54' W 043°09'0 0.0
2018-Mar-12 02:29S 22°54' W 043°09'0 0.0
2018-Mar-12 01:59S 22°54' W 043°09'0 0.0
2018-Mar-12 01:29S 22°54' W 043°09'0 0.0
2018-Mar-12 00:59S 22°54' W 043°09'0 0.0
2018-Mar-12 00:26S 22°54' W 043°09'0 0.0
2018-Mar-11 23:59S 22°54' W 043°09'0 0.0
2018-Mar-11 23:29S 22°54' W 043°09'0 0.0
2018-Mar-11 22:59S 22°54' W 043°09'0 0.0
2018-Mar-11 22:29S 22°54' W 043°09'0 0.0
2018-Mar-11 21:56S 22°54' W 043°09'0 0.0
2018-Mar-11 21:29S 22°54' W 043°09'0 0.0
2018-Mar-11 20:59S 22°54' W 043°09'0 0.0
2018-Mar-11 20:29S 22°54' W 043°09'0 0.0
2018-Mar-11 19:59S 22°54' W 043°09'0 0.0
2018-Mar-11 19:29S 22°54' W 043°09'0 0.0
2018-Mar-11 18:56S 22°54' W 043°09'0 0.0
2018-Mar-11 18:29S 22°54' W 043°09'0 0.0
2018-Mar-11 17:59S 22°54' W 043°09'0 0.0
2018-Mar-11 17:29S 22°54' W 043°09'0 0.0
2018-Mar-11 16:59S 22°54' W 043°09'0 0.0
2018-Mar-11 16:29S 22°54' W 043°09'  

Dump ship's entire track history